Time;durP1;ratioP1;P1;durP2;ratioP2;P2;SDS_P1;SDS_P2;PMS_P1;PMS_P2;Temp;Humidity;BMP_temperature;BMP_pressure;BME280_temperature;BME280_humidity;BME280_pressure;Samples;Min_cycle;Max_cycle;Signal;HPM_P1;HPM_P2
2022/11/08 00:03:31;;;;;;;0.30;0.30;;;;;;;13.01;70.81;100574.41;5143662;28;20046;-78
2022/11/08 00:14:33;;;;;;;0.50;0.50;;;;;;;13.11;71.15;100586.28;5128504;28;20066;-81
2022/11/08 00:17:04;;;;;;;0.55;0.55;;;;;;;13.00;71.66;100586.69;5145382;28;20039;-79
2022/11/08 00:19:34;;;;;;;0.38;0.38;;;;;;;12.94;71.66;100580.81;5150014;28;20038;-81
2022/11/08 00:22:05;;;;;;;0.52;0.52;;;;;;;13.00;71.57;100575.31;5147300;28;20058;-79
2022/11/08 00:24:35;;;;;;;0.73;0.73;;;;;;;12.95;71.80;100572.00;5129347;28;20027;-79
2022/11/08 00:27:10;;;;;;;0.20;0.20;;;;;;;12.89;72.13;100575.75;5122635;28;20042;-80
2022/11/08 00:29:40;;;;;;;0.20;0.20;;;;;;;12.93;71.69;100584.38;5149867;28;20035;-80
2022/11/08 00:32:14;;;;;;;0.40;0.40;;;;;;;12.94;71.73;100579.06;5127410;28;24604;-79
2022/11/08 00:34:45;;;;;;;0.40;0.40;;;;;;;12.99;71.20;100579.72;5141987;28;20062;-81
2022/11/08 00:37:18;;;;;;;0.40;0.40;;;;;;;12.98;71.34;100577.16;5128331;28;20091;-81
2022/11/08 00:39:48;;;;;;;0.30;0.30;;;;;;;12.98;71.27;100574.50;5143052;28;20030;-80
2022/11/08 00:42:19;;;;;;;0.20;0.20;;;;;;;13.00;71.42;100575.31;5157317;28;20045;-80
2022/11/08 00:44:49;;;;;;;0.20;0.20;;;;;;;13.00;71.57;100580.59;5147561;28;20045;-80
2022/11/08 00:47:20;;;;;;;0.30;0.30;;;;;;;12.99;71.48;100573.59;5113189;28;20472;-79
2022/11/08 00:49:50;;;;;;;0.32;0.32;;;;;;;12.98;71.41;100577.16;5144871;28;20110;-79
2022/11/08 00:52:21;;;;;;;0.60;0.60;;;;;;;12.99;71.50;100574.44;5143345;28;20047;-79
2022/11/08 00:54:51;;;;;;;0.63;0.63;;;;;;;12.97;71.50;100571.03;5131849;28;20038;-79
2022/11/08 00:57:22;;;;;;;0.95;0.75;;;;;;;13.00;71.37;100573.53;5142150;28;20050;-80
2022/11/08 00:59:52;;;;;;;2.60;1.38;;;;;;;13.00;71.55;100564.78;5141027;28;20030;-79
2022/11/08 01:02:23;;;;;;;0.30;0.30;;;;;;;13.01;71.25;100563.88;5133832;28;20043;-80
2022/11/08 01:04:53;;;;;;;1.38;1.10;;;;;;;13.04;71.53;100571.63;5095349;28;1105844;-79
2022/11/08 01:07:24;;;;;;;0.50;0.50;;;;;;;12.98;71.94;100566.63;5123628;28;20046;-80
2022/11/08 01:09:54;;;;;;;3.08;1.05;;;;;;;13.02;71.54;100570.81;5145312;28;20038;-78
2022/11/08 01:12:25;;;;;;;0.20;0.20;;;;;;;13.09;70.96;100560.91;5136260;28;20035;-80
2022/11/08 01:14:55;;;;;;;0.45;0.45;;;;;;;13.04;71.48;100558.47;5170236;28;20027;-78
2022/11/08 01:17:26;;;;;;;0.43;0.43;;;;;;;13.02;71.40;100552.38;5141798;28;20061;-80
2022/11/08 01:19:56;;;;;;;0.52;0.50;;;;;;;13.00;71.44;100552.47;5143466;28;20062;-78
2022/11/08 01:22:27;;;;;;;0.40;0.40;;;;;;;12.93;71.99;100544.88;5138853;28;20041;-79
2022/11/08 01:24:57;;;;;;;0.20;0.20;;;;;;;12.98;71.66;100548.19;5144089;28;20042;-80
2022/11/08 01:27:28;;;;;;;0.43;0.43;;;;;;;12.88;72.14;100548.53;5145072;28;20746;-80
2022/11/08 01:29:58;;;;;;;0.32;0.32;;;;;;;12.97;71.83;100542.06;5143105;28;20724;-79
2022/11/08 01:32:29;;;;;;;2.20;0.70;;;;;;;12.90;71.95;100540.56;5138179;28;20043;-80
2022/11/08 01:34:59;;;;;;;1.15;0.75;;;;;;;12.89;71.93;100539.72;5144194;28;20555;-79
2022/11/08 01:37:30;;;;;;;0.32;0.32;;;;;;;12.97;71.43;100542.06;5141729;28;20072;-80
2022/11/08 01:40:01;;;;;;;0.30;0.30;;;;;;;12.90;72.27;100535.31;5142069;28;20043;-80
2022/11/08 01:42:32;;;;;;;0.20;0.20;;;;;;;12.99;71.33;100536.72;5126695;28;20046;-81
2022/11/08 01:45:05;;;;;;;0.43;0.43;;;;;;;13.01;71.47;100534.91;5157747;28;20114;-81
2022/11/08 01:47:35;;;;;;;0.20;0.20;;;;;;;12.99;71.63;100534.09;5141063;28;20034;-78
2022/11/08 01:50:17;;;;;;;0.35;0.35;;;;;;;12.96;71.38;100531.56;5147524;28;20102;-80
2022/11/08 01:52:52;;;;;;;0.30;0.30;;;;;;;12.87;71.48;100531.03;5127612;28;20031;-80
2022/11/08 01:55:35;;;;;;;0.20;0.20;;;;;;;12.93;71.32;100531.72;5140714;28;20749;-80
2022/11/08 01:58:11;;;;;;;0.40;0.40;;;;;;;12.89;71.71;100523.94;5126547;28;20053;-79
2022/11/08 02:00:45;;;;;;;0.70;0.70;;;;;;;12.93;71.59;100527.28;5138521;28;20050;-80
2022/11/08 02:03:19;;;;;;;0.30;0.30;;;;;;;12.97;71.03;100523.63;5140422;28;20059;-81
2022/11/08 02:05:50;;;;;;;0.20;0.20;;;;;;;12.90;71.37;100527.41;5140242;28;20524;-81
2022/11/08 02:08:37;;;;;;;0.30;0.30;;;;;;;12.93;71.69;100521.19;5118814;28;20137;-81
2022/11/08 02:11:13;;;;;;;0.20;0.20;;;;;;;12.98;71.57;100527.13;5144488;28;20386;-81
2022/11/08 02:13:44;;;;;;;0.40;0.40;;;;;;;12.80;71.91;100523.44;5143696;28;20050;-79
2022/11/08 02:16:15;;;;;;;0.40;0.40;;;;;;;12.83;71.98;100516.28;5144710;28;20035;-80
2022/11/08 02:18:47;;;;;;;0.20;0.20;;;;;;;12.94;71.32;100517.59;5139926;28;20046;-81
2022/11/08 02:21:37;;;;;;;0.40;0.40;;;;;;;12.87;71.87;100520.50;5140828;28;20145;-80
2022/11/08 02:24:10;;;;;;;0.60;0.60;;;;;;;12.68;72.50;100516.88;5141686;28;20039;-81
2022/11/08 02:26:43;;;;;;;0.88;0.77;;;;;;;12.81;72.07;100515.47;5143044;28;20045;-81
2022/11/08 02:29:33;;;;;;;0.77;0.77;;;;;;;12.95;71.54;100514.06;5125457;28;20031;-78
2022/11/08 02:32:05;;;;;;;1.15;0.93;;;;;;;12.82;71.67;100509.31;5126044;28;20410;-80
2022/11/08 02:34:46;;;;;;;0.40;0.40;;;;;;;12.79;71.73;100498.88;5110807;28;20305;-80
2022/11/08 02:37:19;;;;;;;0.85;0.85;;;;;;;12.72;72.33;100503.56;5151022;28;20042;-79
2022/11/08 02:39:50;;;;;;;0.70;0.70;;;;;;;12.75;71.92;100502.56;5112003;28;20074;-80
2022/11/08 02:42:20;;;;;;;0.52;0.52;;;;;;;12.73;72.26;100493.88;5126394;28;20442;-79
2022/11/08 02:44:51;;;;;;;0.85;0.60;;;;;;;12.81;71.90;100491.78;5138968;28;20742;-78
2022/11/08 02:47:23;;;;;;;0.28;0.28;;;;;;;12.77;71.93;100482.28;5124599;28;20493;-81
2022/11/08 02:49:53;;;;;;;0.20;0.20;;;;;;;12.78;71.92;100477.88;5119208;28;20048;-81
2022/11/08 02:52:23;;;;;;;1.05;1.00;;;;;;;12.75;71.63;100477.09;5114756;28;20043;-81
2022/11/08 02:54:54;;;;;;;0.50;0.50;;;;;;;12.80;71.62;100465.53;5152076;28;20065;-78
2022/11/08 02:57:25;;;;;;;0.50;0.50;;;;;;;12.80;71.87;100468.16;5140078;28;20042;-78
2022/11/08 02:59:55;;;;;;;0.65;0.65;;;;;;;12.79;71.84;100453.28;5148077;28;20038;-79
2022/11/08 03:02:26;;;;;;;0.30;0.30;;;;;;;12.77;71.76;100448.06;5162189;28;20042;-80
2022/11/08 03:04:57;;;;;;;0.28;0.28;;;;;;;12.80;71.52;100455.00;5143499;28;20045;-80
2022/11/08 03:07:27;;;;;;;0.40;0.40;;;;;;;12.70;71.76;100441.31;5143835;28;20046;-80
2022/11/08 03:09:58;;;;;;;0.80;0.63;;;;;;;12.79;71.33;100442.75;5133216;28;20030;-79
2022/11/08 03:12:28;;;;;;;0.50;0.50;;;;;;;12.72;71.36;100432.47;5159271;28;20137;-78
2022/11/08 03:14:59;;;;;;;0.38;0.38;;;;;;;12.73;71.58;100423.63;5143643;28;20043;-81
2022/11/08 03:17:29;;;;;;;0.80;0.80;;;;;;;12.70;71.35;100425.53;5146960;28;20100;-79
2022/11/08 03:20:03;;;;;;;0.57;0.57;;;;;;;12.73;71.48;100422.78;5128171;28;20153;-79
2022/11/08 03:22:34;;;;;;;0.30;0.30;;;;;;;12.65;71.98;100422.25;5124031;28;20060;-80
2022/11/08 03:25:08;;;;;;;0.38;0.38;;;;;;;12.71;71.53;100428.13;5159677;28;20030;-80
2022/11/08 03:27:39;;;;;;;0.60;0.60;;;;;;;12.65;71.76;100422.25;5126683;28;20509;-80
2022/11/08 03:30:09;;;;;;;1.58;1.27;;;;;;;12.63;71.69;100421.44;5126538;28;20119;-82
2022/11/08 03:32:42;;;;;;;1.13;1.13;;;;;;;12.52;72.40;100421.88;5142735;28;20118;-79
2022/11/08 03:35:13;;;;;;;0.30;0.30;;;;;;;12.59;71.92;100411.06;5132870;28;20680;-78
2022/11/08 03:37:51;;;;;;;0.35;0.35;;;;;;;12.57;71.70;100412.00;5143127;28;20045;-81
2022/11/08 03:40:23;;;;;;;0.20;0.20;;;;;;;12.57;71.83;100406.75;5151591;28;20318;-81
2022/11/08 03:42:57;;;;;;;1.33;0.88;;;;;;;12.54;71.89;100399.00;5130778;28;20472;-81
2022/11/08 03:45:28;;;;;;;0.60;0.60;;;;;;;12.42;72.78;100397.72;5160565;28;20026;-80
2022/11/08 03:47:58;;;;;;;1.13;0.90;;;;;;;12.48;72.09;100405.34;5146943;28;20097;-81
2022/11/08 03:50:28;;;;;;;0.75;0.75;;;;;;;12.50;71.84;100408.78;5142217;28;20038;-78
2022/11/08 03:52:59;;;;;;;2.40;1.38;;;;;;;12.49;71.90;100396.56;5162518;28;20047;-80
2022/11/08 03:55:30;;;;;;;0.85;0.85;;;;;;;12.52;71.73;100390.31;5130507;28;20054;-80
2022/11/08 03:58:00;;;;;;;0.85;0.82;;;;;;;12.56;71.53;100391.91;5129729;28;20598;-81
2022/11/08 04:00:33;;;;;;;0.90;0.82;;;;;;;12.50;71.70;100393.00;5143022;28;20034;-78
2022/11/08 04:03:08;;;;;;;2.15;1.58;;;;;;;12.53;71.34;100387.59;5142253;28;20096;-80
2022/11/08 04:05:45;;;;;;;0.30;0.30;;;;;;;12.53;71.66;100384.97;5132001;28;20027;-80
2022/11/08 04:08:17;;;;;;;0.50;0.50;;;;;;;12.48;71.83;100394.84;5149223;28;20488;-80
2022/11/08 04:15:13;;;;;;;0.30;0.30;;;;;;;12.46;71.85;100388.75;5140941;28;20667;-81
2022/11/08 04:16:41;;;;;;;1.05;0.45;;;;;;;12.46;71.85;100380.88;5162709;28;20030;-79
2022/11/08 04:22:05;;;;;;;0.32;0.32;;;;;;;12.46;71.54;100374.78;5167059;28;20042;-81
2022/11/08 04:24:35;;;;;;;3.20;0.63;;;;;;;12.37;72.18;100381.25;5131488;28;20110;-81
2022/11/08 04:27:06;;;;;;;0.30;0.30;;;;;;;12.33;72.21;100374.41;5148721;28;20098;-80
2022/11/08 04:29:37;;;;;;;0.25;0.25;;;;;;;12.37;71.71;100361.06;5147419;28;20023;-80
2022/11/08 04:32:07;;;;;;;0.28;0.28;;;;;;;12.39;72.13;100359.25;5146472;28;20047;-81
2022/11/08 04:34:38;;;;;;;0.30;0.30;;;;;;;12.55;71.61;100327.03;5134246;28;20086;-78
2022/11/08 04:37:08;;;;;;;0.82;0.82;;;;;;;12.48;71.61;100334.31;5164190;28;20057;-77
2022/11/08 04:39:39;;;;;;;0.22;0.22;;;;;;;12.29;72.60;100334.22;5184911;28;20033;-81
2022/11/08 04:42:09;;;;;;;0.63;0.63;;;;;;;12.33;72.34;100338.41;5147233;28;20064;-81
2022/11/08 04:44:39;;;;;;;4.25;1.73;;;;;;;12.23;72.53;100335.31;5134789;28;20026;-78
2022/11/08 04:47:10;;;;;;;0.75;0.75;;;;;;;12.21;72.56;100331.88;5145133;28;20041;-78
2022/11/08 04:49:41;;;;;;;0.45;0.45;;;;;;;12.27;72.31;100330.78;5147604;28;20116;-79
2022/11/08 04:52:11;;;;;;;1.02;0.95;;;;;;;12.22;72.42;100325.69;5138855;28;20106;-78
2022/11/08 04:54:45;;;;;;;0.30;0.30;;;;;;;12.24;72.40;100313.34;5153893;28;20503;-78
2022/11/08 04:57:15;;;;;;;1.70;1.48;;;;;;;12.20;72.39;100313.53;5147490;28;20061;-79
2022/11/08 04:59:46;;;;;;;0.50;0.50;;;;;;;12.22;72.32;100307.28;5137690;28;20473;-81
2022/11/08 05:02:16;;;;;;;0.30;0.30;;;;;;;12.09;72.90;100304.28;5146005;28;20038;-80
2022/11/08 05:04:47;;;;;;;0.20;0.20;;;;;;;12.16;72.31;100289.13;5150682;28;20043;-80
2022/11/08 05:07:19;;;;;;;0.22;0.22;;;;;;;12.10;72.26;100292.03;5130565;28;20042;-79
2022/11/08 05:09:49;;;;;;;0.45;0.45;;;;;;;12.17;72.18;100284.72;5149472;28;20101;-82
2022/11/08 05:12:20;;;;;;;0.40;0.40;;;;;;;12.06;72.67;100282.53;5146824;28;20753;-80
2022/11/08 05:14:51;;;;;;;0.63;0.63;;;;;;;12.06;72.52;100272.00;5143745;28;20042;-80
2022/11/08 05:17:21;;;;;;;0.63;0.63;;;;;;;12.12;72.21;100279.66;5142870;28;20045;-81
2022/11/08 05:25:30;;;;;;;0.40;0.40;;;;;;;11.96;72.81;100264.47;5146998;28;20080;-80
2022/11/08 05:28:04;;;;;;;0.75;0.75;;;;;;;11.94;72.93;100258.41;5128669;28;20062;-80
2022/11/08 05:30:34;;;;;;;0.60;0.60;;;;;;;11.95;72.60;100260.13;5145042;28;20080;-79
2022/11/08 05:33:05;;;;;;;0.50;0.50;;;;;;;12.10;72.43;100257.84;5124051;28;20051;-79
2022/11/08 05:35:35;;;;;;;0.70;0.70;;;;;;;11.92;73.01;100255.00;5144810;28;20342;-80
2022/11/08 05:38:06;;;;;;;0.32;0.32;;;;;;;11.93;72.69;100256.72;5126643;28;20034;-77
2022/11/08 05:40:36;;;;;;;0.30;0.30;;;;;;;11.93;72.50;100243.56;5159648;28;20105;-79
2022/11/08 05:43:08;;;;;;;0.30;0.30;;;;;;;11.84;72.94;100235.19;5146344;28;20038;-80
2022/11/08 05:45:38;;;;;;;1.02;0.63;;;;;;;11.93;72.31;100221.66;5133287;28;20049;-79
2022/11/08 05:48:09;;;;;;;0.20;0.20;;;;;;;11.77;73.22;100218.81;5127438;28;20038;-79
2022/11/08 05:50:40;;;;;;;0.30;0.30;;;;;;;11.82;72.91;100220.31;5130905;28;20030;-80
2022/11/08 05:53:11;;;;;;;0.20;0.20;;;;;;;11.81;72.64;100215.13;5147424;28;20053;-78
2022/11/08 05:55:41;;;;;;;0.25;0.25;;;;;;;11.69;72.89;100210.38;5150156;28;20149;-78
2022/11/08 05:58:12;;;;;;;0.35;0.35;;;;;;;11.53;73.77;100203.09;5145404;28;20485;-79
2022/11/08 06:00:42;;;;;;;0.40;0.40;;;;;;;11.73;72.71;100201.44;5158940;28;20089;-78
2022/11/08 06:03:13;;;;;;;0.85;0.85;;;;;;;11.61;73.17;100179.16;5130290;28;20062;-79
2022/11/08 06:05:43;;;;;;;0.40;0.40;;;;;;;11.72;72.50;100183.97;5127087;28;20030;-81
2022/11/08 06:08:14;;;;;;;0.32;0.32;;;;;;;11.57;73.53;100191.56;5137786;28;20046;-81
2022/11/08 06:10:44;;;;;;;1.20;1.10;;;;;;;11.71;73.21;100196.25;5113565;28;20027;-81
2022/11/08 06:13:15;;;;;;;3.50;1.63;;;;;;;11.64;73.51;100200.91;5140435;28;20066;-79
2022/11/08 06:15:45;;;;;;;0.65;0.45;;;;;;;11.67;72.95;100213.06;5141948;28;20118;-82
2022/11/08 06:18:16;;;;;;;0.40;0.40;;;;;;;11.59;73.33;100218.63;5143294;28;20037;-79
2022/11/08 06:20:46;;;;;;;0.30;0.30;;;;;;;11.71;72.41;100213.78;5125882;28;20046;-79
2022/11/08 06:23:16;;;;;;;0.73;0.73;;;;;;;11.64;72.67;100213.19;5118737;28;20054;-80
2022/11/08 06:25:47;;;;;;;0.90;0.85;;;;;;;11.72;72.64;100211.13;5130860;28;20023;-79
2022/11/08 06:28:18;;;;;;;1.05;1.05;;;;;;;11.63;72.91;100211.47;5126078;28;20043;-80
2022/11/08 06:30:49;;;;;;;0.32;0.32;;;;;;;11.58;72.93;100211.66;5108803;28;20477;-81
2022/11/08 06:33:20;;;;;;;0.75;0.75;;;;;;;11.65;72.49;100218.38;5127596;28;20224;-81
2022/11/08 06:35:50;;;;;;;0.57;0.57;;;;;;;11.67;72.58;100217.47;5111532;28;20027;-79
2022/11/08 06:38:21;;;;;;;0.82;0.82;;;;;;;11.62;72.51;100215.84;5121477;28;20572;-81
2022/11/08 06:40:51;;;;;;;0.38;0.38;;;;;;;11.58;72.34;100216.91;5141400;28;20058;-80
2022/11/08 06:43:22;;;;;;;0.50;0.50;;;;;;;11.70;72.10;100214.69;5141562;28;20047;-81
2022/11/08 06:45:52;;;;;;;0.60;0.60;;;;;;;11.66;71.95;100221.84;5145164;28;20042;-79
2022/11/08 06:48:23;;;;;;;0.32;0.32;;;;;;;11.61;71.82;100226.44;5103400;28;20101;-82
2022/11/08 06:50:53;;;;;;;0.55;0.50;;;;;;;11.62;72.09;100223.75;5124419;28;20035;-81
2022/11/08 06:53:23;;;;;;;0.70;0.70;;;;;;;11.59;71.45;100226.50;5121794;28;20110;-80
2022/11/08 06:55:54;;;;;;;0.98;0.98;;;;;;;11.75;71.34;100220.63;5110018;28;20030;-81
2022/11/08 06:58:25;;;;;;;0.25;0.25;;;;;;;11.72;71.46;100224.25;5124701;28;20035;-80
2022/11/08 07:00:55;;;;;;;1.83;0.70;;;;;;;11.71;71.47;100226.91;5107362;28;20039;-79
2022/11/08 07:03:26;;;;;;;0.50;0.50;;;;;;;11.77;71.28;100224.06;5133010;28;20049;-79
2022/11/08 07:05:56;;;;;;;0.70;0.70;;;;;;;11.60;71.74;100233.47;5144255;28;20485;-81
2022/11/08 07:08:27;;;;;;;0.35;0.35;;;;;;;11.72;71.31;100237.41;5131279;28;20528;-81
2022/11/08 07:10:58;;;;;;;0.30;0.30;;;;;;;11.56;71.34;100224.00;5121373;28;20038;-81
2022/11/08 07:13:28;;;;;;;1.75;1.40;;;;;;;11.67;71.59;100227.97;5119914;28;20047;-81
2022/11/08 07:15:59;;;;;;;0.65;0.65;;;;;;;11.62;71.42;100231.63;5127789;28;20045;-78
2022/11/08 07:18:30;;;;;;;0.50;0.50;;;;;;;11.50;71.49;100226.88;5152216;28;20050;-78
2022/11/08 07:21:01;;;;;;;0.25;0.25;;;;;;;11.68;71.39;100224.44;5141992;28;20051;-81
2022/11/08 07:23:31;;;;;;;1.45;0.77;;;;;;;11.60;71.37;100220.34;5118746;28;20050;-80
2022/11/08 07:26:03;;;;;;;0.50;0.50;;;;;;;11.53;71.53;100224.09;5130354;28;20027;-79
2022/11/08 07:28:40;;;;;;;0.30;0.30;;;;;;;11.54;71.65;100217.94;5149450;28;20045;-78
2022/11/08 07:31:10;;;;;;;0.75;0.75;;;;;;;11.54;71.36;100222.34;5158948;28;20564;-77
2022/11/08 07:33:41;;;;;;;0.35;0.35;;;;;;;11.67;71.45;100220.94;5139525;28;20229;-78
2022/11/08 07:36:11;;;;;;;0.80;0.80;;;;;;;11.61;71.07;100227.28;5109647;28;20038;-79
2022/11/08 07:38:42;;;;;;;0.63;0.63;;;;;;;11.72;71.18;100231.25;5159479;28;20677;-82
2022/11/08 07:41:12;;;;;;;0.30;0.30;;;;;;;11.69;71.02;100229.63;5110409;28;20569;-78
2022/11/08 07:43:43;;;;;;;0.60;0.60;;;;;;;11.74;70.96;100232.91;5107478;28;20049;-76
2022/11/08 07:46:14;;;;;;;0.20;0.20;;;;;;;11.70;70.36;100233.09;5114085;28;20054;-79
2022/11/08 07:48:44;;;;;;;0.30;0.30;;;;;;;11.68;70.43;100230.53;5122228;28;20503;-80
2022/11/08 07:51:15;;;;;;;1.17;1.08;;;;;;;11.71;69.90;100232.19;5107701;28;20031;-80
2022/11/08 07:53:45;;;;;;;0.40;0.40;;;;;;;11.72;69.25;100226.00;5122317;28;20119;-81
2022/11/08 07:56:16;;;;;;;0.40;0.40;;;;;;;11.67;69.92;100228.81;5166198;28;20014;-77
2022/11/08 07:58:46;;;;;;;0.65;0.65;;;;;;;11.73;69.71;100222.47;5152581;28;20047;-80
2022/11/08 08:01:17;;;;;;;0.85;0.85;;;;;;;11.83;69.24;100210.69;5162444;28;20027;-77
2022/11/08 08:03:48;;;;;;;0.57;0.57;;;;;;;11.83;69.20;100208.03;5147987;28;20041;-79
2022/11/08 08:06:18;;;;;;;1.52;1.42;;;;;;;11.79;68.99;100209.06;5127763;28;20456;-78
2022/11/08 08:08:49;;;;;;;0.20;0.20;;;;;;;11.86;69.66;100212.31;5137944;28;20038;-80
2022/11/08 08:11:20;;;;;;;0.20;0.20;;;;;;;11.79;69.31;100202.06;5126698;28;20031;-81
2022/11/08 08:13:50;;;;;;;0.20;0.20;;;;;;;11.92;69.42;100206.81;5143641;28;20050;-79
2022/11/08 08:16:22;;;;;;;0.30;0.30;;;;;;;12.03;67.69;100214.28;5139916;28;20544;-81
2022/11/08 08:18:52;;;;;;;0.38;0.38;;;;;;;11.92;68.47;100231.34;5125343;28;20043;-80
2022/11/08 08:21:23;;;;;;;0.43;0.43;;;;;;;11.90;68.99;100235.78;5126996;28;20031;-78
2022/11/08 08:23:53;;;;;;;0.50;0.50;;;;;;;11.95;68.89;100236.44;5121522;28;20069;-81
2022/11/08 08:26:24;;;;;;;0.57;0.57;;;;;;;11.99;68.53;100236.38;5130461;28;20034;-81
2022/11/08 08:28:54;;;;;;;0.30;0.30;;;;;;;12.15;68.61;100226.94;5134379;28;20073;-81
2022/11/08 08:31:25;;;;;;;0.30;0.30;;;;;;;12.08;68.37;100233.38;5121056;28;20031;-81
2022/11/08 08:33:55;;;;;;;0.40;0.40;;;;;;;12.18;68.76;100226.81;5112014;28;20043;-79
2022/11/08 08:36:26;;;;;;;0.30;0.30;;;;;;;12.19;67.90;100228.50;5119351;28;20027;-80
2022/11/08 08:38:56;;;;;;;0.20;0.20;;;;;;;12.13;67.97;100236.66;5108278;28;20031;-81
2022/11/08 08:41:27;;;;;;;0.50;0.50;;;;;;;12.21;67.97;100234.56;5103671;28;20119;-80
2022/11/08 08:43:57;;;;;;;0.30;0.30;;;;;;;12.19;67.78;100241.66;5122136;28;20065;-79
2022/11/08 08:46:28;;;;;;;0.30;0.30;;;;;;;12.19;67.84;100231.13;5110096;28;20034;-80
2022/11/08 08:48:58;;;;;;;0.70;0.70;;;;;;;12.24;67.94;100226.56;5117404;28;20051;-80
2022/11/08 08:51:29;;;;;;;0.28;0.28;;;;;;;12.26;68.11;100227.34;5140979;28;20046;-80
2022/11/08 08:53:59;;;;;;;0.30;0.30;;;;;;;12.27;67.42;100229.03;5108398;28;20035;-80
2022/11/08 08:56:30;;;;;;;0.70;0.70;;;;;;;12.42;67.71;100234.59;5141276;28;20034;-81
2022/11/08 08:59:00;;;;;;;0.60;0.60;;;;;;;12.39;67.41;100239.97;5128059;28;20036;-79
2022/11/08 09:01:31;;;;;;;0.88;0.88;;;;;;;12.37;66.03;100234.78;5126926;28;20027;-77
2022/11/08 09:04:05;;;;;;;0.20;0.20;;;;;;;12.46;67.21;100237.94;5124899;28;20134;-80
2022/11/08 09:06:36;;;;;;;0.20;0.20;;;;;;;12.47;67.74;100239.66;5105329;28;20027;-80
2022/11/08 09:09:06;;;;;;;0.75;0.75;;;;;;;12.54;67.28;100241.94;5137442;28;20035;-80
2022/11/08 09:11:37;;;;;;;0.50;0.50;;;;;;;12.58;67.31;100240.91;5131127;28;20050;-77
2022/11/08 09:14:07;;;;;;;0.30;0.30;;;;;;;12.54;66.65;100244.56;5110820;28;20038;-81
2022/11/08 09:16:38;;;;;;;0.30;0.30;;;;;;;12.62;66.84;100244.25;5112741;28;20062;-81
2022/11/08 09:19:09;;;;;;;0.20;0.20;;;;;;;12.60;66.67;100238.19;5139912;28;20031;-80
2022/11/08 09:21:39;;;;;;;0.40;0.40;;;;;;;12.58;66.33;100234.78;5136779;28;20042;-79
2022/11/08 09:24:09;;;;;;;0.22;0.22;;;;;;;12.58;66.92;100243.53;5124757;28;20398;-79
2022/11/08 09:26:40;;;;;;;0.20;0.20;;;;;;;12.58;66.98;100245.28;5113285;28;20031;-80
2022/11/08 09:29:13;;;;;;;0.20;0.20;;;;;;;12.58;66.81;100233.00;5133678;28;20104;-82
2022/11/08 09:31:44;;;;;;;1.45;1.35;;;;;;;12.66;66.48;100239.72;5107693;28;20035;-80
2022/11/08 09:34:14;;;;;;;0.20;0.20;;;;;;;12.63;65.63;100239.84;5113634;28;20061;-78
2022/11/08 09:36:45;;;;;;;0.40;0.40;;;;;;;12.74;66.77;100237.59;5143057;28;20038;-78
2022/11/08 09:39:16;;;;;;;0.50;0.50;;;;;;;12.74;65.64;100227.06;5123059;28;20294;-78
2022/11/08 09:42:08;;;;;;;0.40;0.40;;;;;;;12.77;66.15;100231.34;5115492;28;20027;-80
2022/11/08 09:44:57;;;;;;;0.20;0.20;;;;;;;13.03;65.49;100215.25;5162331;28;20065;-78
2022/11/08 09:47:36;;;;;;;0.30;0.30;;;;;;;12.88;65.40;100213.31;5147650;28;20039;-80
2022/11/08 09:50:45;;;;;;;0.20;0.20;;;;;;;12.86;65.91;100207.25;5117927;28;20115;-81
2022/11/08 09:53:33;;;;;;;0.30;0.30;;;;;;;12.89;66.32;100197.44;5111103;28;20222;-80
2022/11/08 09:56:15;;;;;;;0.65;0.65;;;;;;;12.98;65.91;100192.66;5125295;28;20031;-79
2022/11/08 09:59:00;;;;;;;0.30;0.30;;;;;;;12.95;64.56;100192.78;5107742;28;20126;-81
2022/11/08 10:01:33;;;;;;;0.65;0.65;;;;;;;12.97;65.08;100201.50;5109100;28;20054;-78
2022/11/08 10:04:14;;;;;;;0.50;0.50;;;;;;;13.00;64.51;100196.94;5126990;28;20683;-77
2022/11/08 10:07:03;;;;;;;0.28;0.28;;;;;;;13.02;63.47;100194.22;5130651;28;20030;-80
2022/11/08 10:09:45;;;;;;;0.25;0.25;;;;;;;13.09;64.24;100189.53;5140230;28;20046;-80
2022/11/08 10:12:16;;;;;;;0.25;0.25;;;;;;;13.12;65.14;100187.63;5140577;28;20058;-79
2022/11/08 10:14:52;;;;;;;0.32;0.32;;;;;;;13.18;63.34;100189.13;5109677;28;20030;-79
2022/11/08 10:18:01;;;;;;;2.35;0.95;;;;;;;13.17;63.53;100188.28;5136240;28;20050;-79
2022/11/08 10:20:47;;;;;;;0.47;0.47;;;;;;;13.21;63.86;100199.53;5112433;28;20046;-80
2022/11/08 10:23:41;;;;;;;0.75;0.75;;;;;;;13.29;64.51;100181.56;5137063;28;20043;-79
2022/11/08 10:26:23;;;;;;;;;;;;;;;13.34;63.26;100179.56;5137487;28;20058;-79
2022/11/08 10:29:00;;;;;;;0.57;0.57;;;;;;;13.49;63.46;100169.25;5121447;28;20024;-79
2022/11/08 10:31:40;;;;;;;0.30;0.30;;;;;;;13.44;63.30;100172.09;5108429;28;20038;-79
2022/11/08 10:34:16;;;;;;;0.22;0.22;;;;;;;13.47;62.89;100171.97;5136333;28;20557;-80
2022/11/08 10:36:49;;;;;;;2.50;1.23;;;;;;;13.56;62.65;100172.44;5126163;28;20050;-80
2022/11/08 10:39:24;;;;;;;0.52;0.52;;;;;;;13.53;63.56;100168.19;5103145;28;20043;-80
2022/11/08 10:42:16;;;;;;;0.30;0.30;;;;;;;13.66;62.47;100176.34;5151341;28;20035;-80
2022/11/08 10:44:46;;;;;;;0.43;0.43;;;;;;;13.64;63.67;100173.78;5136743;28;21791;-79
2022/11/08 10:47:23;;;;;;;0.30;0.30;;;;;;;13.72;61.87;100162.88;5121309;28;20114;-79
2022/11/08 10:49:54;;;;;;;0.30;0.30;;;;;;;13.79;61.83;100148.44;5118179;28;20034;-80
2022/11/08 10:52:33;;;;;;;0.30;0.30;;;;;;;13.80;63.11;100152.78;5134298;28;20414;-80
2022/11/08 10:55:45;;;;;;;1.00;1.00;;;;;;;13.89;62.57;100145.34;5108112;28;20041;-80
2022/11/08 10:58:39;;;;;;;0.30;0.30;;;;;;;13.95;62.48;100147.69;5138387;28;20046;-79
2022/11/08 11:01:18;;;;;;;0.70;0.70;;;;;;;14.03;62.00;100147.31;5140263;28;20041;-79
2022/11/08 11:03:51;;;;;;;0.30;0.30;;;;;;;14.11;62.93;100148.59;5124761;28;20077;-79
2022/11/08 11:06:31;;;;;;;0.40;0.40;;;;;;;14.19;62.71;100148.22;5122561;28;20556;-80
2022/11/08 11:09:16;;;;;;;0.50;0.50;;;;;;;14.20;61.35;100135.88;5137731;28;20655;-79
2022/11/08 11:11:56;;;;;;;0.57;0.45;;;;;;;14.22;62.21;100126.94;5121072;28;20030;-79
2022/11/08 11:14:27;;;;;;;0.20;0.20;;;;;;;14.32;61.60;100137.88;5152995;28;20048;-80
2022/11/08 11:17:14;;;;;;;1.65;1.55;;;;;;;14.35;62.88;100127.16;5119033;28;20030;-79
2022/11/08 11:19:53;;;;;;;0.22;0.22;;;;;;;14.42;62.43;100135.63;5123054;28;20041;-80
2022/11/08 11:22:31;;;;;;;0.80;0.80;;;;;;;14.41;61.78;100134.78;5124231;28;20050;-80
2022/11/08 11:25:13;;;;;;;0.30;0.30;;;;;;;14.41;61.99;100142.69;5136590;28;20059;-79
2022/11/08 11:27:50;;;;;;;0.20;0.20;;;;;;;14.56;61.46;100142.81;5129167;28;20457;-79
2022/11/08 11:30:29;;;;;;;0.20;0.20;;;;;;;14.50;62.30;100132.59;5122144;28;20429;-80
2022/11/08 11:33:27;;;;;;;0.43;0.43;;;;;;;14.51;62.93;100140.41;5148200;28;20047;-80
2022/11/08 11:36:11;;;;;;;0.50;0.50;;;;;;;14.56;61.79;100137.53;5118263;28;20047;-79
2022/11/08 11:38:51;;;;;;;0.30;0.30;;;;;;;14.60;62.23;100132.00;5139595;28;20098;-80
2022/11/08 11:41:27;;;;;;;0.30;0.30;;;;;;;14.63;62.94;100134.47;5113743;28;20042;-79
2022/11/08 11:44:28;;;;;;;0.52;0.40;;;;;;;14.69;63.70;100138.59;5132768;28;20113;-80
2022/11/08 11:47:05;;;;;;;0.20;0.20;;;;;;;14.73;62.69;100145.44;5134841;28;20191;-79
2022/11/08 11:49:35;;;;;;;0.40;0.40;;;;;;;14.82;62.67;100143.25;5134318;28;20039;-79
2022/11/08 11:52:14;;;;;;;0.40;0.40;;;;;;;14.79;63.22;100134.53;5135059;28;20046;-80
2022/11/08 11:54:48;;;;;;;0.85;0.80;;;;;;;14.84;62.33;100139.56;5149484;28;20706;-79
2022/11/08 11:57:45;;;;;;;0.30;0.30;;;;;;;14.89;62.74;100145.44;5150108;28;20027;-81
2022/11/08 12:00:16;;;;;;;0.68;0.35;;;;;;;14.92;62.67;100149.69;5129080;28;20029;-81
2022/11/08 12:02:53;;;;;;;0.50;0.50;;;;;;;14.98;61.85;100154.69;5123939;28;20034;-80
2022/11/08 12:06:03;;;;;;;1.27;1.20;;;;;;;15.02;61.31;100158.84;5137162;28;20034;-81
2022/11/08 12:09:13;;;;;;;0.40;0.40;;;;;;;15.09;61.66;100159.38;5084261;29;20039;-81
2022/11/08 12:12:21;;;;;;;0.47;0.47;;;;;;;15.14;60.30;100159.13;5103262;28;20093;-80
2022/11/08 12:15:01;;;;;;;0.30;0.30;;;;;;;15.22;60.74;100155.09;5137552;28;20051;-80
2022/11/08 12:17:51;;;;;;;0.20;0.20;;;;;;;15.21;61.98;100157.84;5103369;28;20108;-81